Portada
METAR-TAF:

METAR-TAF

Aeropuertos :

Souillac

Brive-la-Gaillarde, Francia

latitud: 45-02-28N, longitud: 001-28-59E, altitud: 311 m

Observación

El informe se hizo hace 33 minutos, a las 18:00 UTC
Viento 5 kt del sur-sureste, variando entre sureste y sur
Temperatura 6°C
Humedad 87%
Presión 1008 hPa
Visibilidad 10 km o más

METAR: LFSL 241800Z AUTO 15005KT 130V190 9999 FEW027/// BKN032/// BKN043/// ///TCU 06/04 Q1008

Hora: 19:33 (18:33 UTC)


TAF: falta

Observaciones y pronósticos meteorológicos de más de 4000 aeropuertos (mensajes METAR y TAF).

Los puntos amarillos y rojos representan las estaciones disponibles.

Ponga el ratón en el punto deseado para ver el nombre de la estación.

Haga clic para ver las observaciones y los pronósticos meteorológicos.

Para cambiar el mapa : haga clic en los botones verdes con una cruz de color negro para hacer un zoom, en el botón verde con un guión para alejar o en las flechas verdes para mapas adyacentes.


METAR-TAF: